Latest Weather Observations for Nerriga

IDN60801

Issued at 4:05 pm EDT Saturday 29 November 2014 (issued every 30 minutes, with the page automatically refreshed every 10 minutes)

About weather observations | Map of weather stations | Latest weather observations for NSW | Other Formats
Station Details ID: 069128 Name: NERRIGA AWS Lat: -35.11 Lon: 150.08 Height: 622.0 m
Data from the previous 72 hours. | See also: Recent months at Nerriga
Date/Time
EDT
Temp
°C
App
Temp
°C
Dew
Point
Rel
Hum
%
Delta-T
°C
Wind Press
QNH
hPa
Press
MSL
hPa
Rain
since 9 am
mm
Dir
 
Spd
km/h
Gust
km/h
Spd
kts
Gust
kts
29/04:00pm 26.1 25.1 12.2 42 8.2 N 9 22 5 12 1014.8 1013.3 0.0
29/03:30pm 27.4 24.1 4.5 23 12.0 NW 11 20 6 11 1015.1 1013.6 0.0
29/03:00pm 28.2 24.0 3.8 21 12.7 NW 15 20 8 11 1015.5 1013.9 0.0
29/02:30pm 27.5 24.7 3.2 21 12.4 WNW 7 17 4 9 1015.9 1014.3 0.0
29/02:00pm 27.5 25.5 4.5 23 12.0 WSW 4 9 2 5 1016.2 1014.7 0.0
29/01:30pm 27.0 24.0 4.1 23 11.9 NW 9 19 5 10 1016.7 1015.2 0.0
29/01:00pm 27.4 22.7 5.1 24 11.8 WNW 19 24 10 13 1017.3 1015.7 0.0
29/12:30pm 26.7 23.5 6.7 28 10.8 N 13 20 7 11 1017.6 1016.1 0.0
29/12:00pm 25.6 22.6 7.7 32 9.8 WNW 13 22 7 12 1018.2 1016.7 0.0
29/11:30am 24.5 21.8 8.9 37 8.7 WNW 13 20 7 11 1018.7 1017.1 0.0
29/11:00am 23.3 20.8 9.7 42 7.6 NNW 13 22 7 12 1019.2 1017.7 0.0
29/10:30am 21.3 19.2 9.9 48 6.3 NNW 11 19 6 10 1019.6 1018.1 0.0
29/10:00am 19.5 17.6 10.5 56 5.0 N 11 19 6 10 1019.9 1018.4 0.0
29/09:30am 18.6 15.9 10.4 59 4.5 N 15 24 8 13 1020.0 1018.5 0.0
29/09:00am 17.8 16.0 10.9 64 3.8 N 11 17 6 9 1020.4 1018.9 0.0
29/08:30am 16.3 14.7 11.5 73 2.7 N 11 17 6 9 1020.4 1018.9 0.0
29/08:00am 15.1 14.6 12.1 82 1.7 N 6 11 3 6 1020.5 1019.0 0.0
29/07:30am 13.9 13.2 12.1 89 1.0 N 7 9 4 5 1020.2 1018.8 0.0
29/07:00am 12.2 12.8 11.9 98 0.2 CALM 0 0 0 0 1020.1 1018.6 0.0
29/06:30am 10.4 10.5 10.1 98 0.2 CALM 0 0 0 0 1019.8 1018.3 0.0
29/06:00am 10.3 10.4 10.0 98 0.2 CALM 0 0 0 0 1019.8 1018.3 0.0
29/05:30am 10.6 9.6 10.3 98 0.2 NNE 6 7 3 4 1019.8 1018.3 0.0
29/05:00am 10.3 9.0 10.0 98 0.2 NNE 7 9 4 5 1019.6 1018.1 0.0
29/04:30am 9.3 7.4 9.0 98 0.2 NNE 9 13 5 7 1019.6 1018.1 0.0
29/04:00am 8.9 7.4 8.6 98 0.2 N 6 7 3 4 1019.9 1018.4 0.0
29/03:30am 9.4 8.1 9.1 98 0.2 N 6 9 3 5 1020.0 1018.5 0.0
29/03:00am 10.1 9.0 9.8 98 0.2 N 6 7 3 4 1020.2 1018.8 0.0
29/02:30am 11.7 11.6 10.8 94 0.5 N 2 4 1 2 1020.5 1019.0 0.0
29/02:00am 12.3 11.2 10.7 90 0.9 N 7 11 4 6 1020.6 1019.1 0.0
29/01:30am 13.1 11.8 11.3 89 1.0 NNE 9 15 5 8 1020.8 1019.3 0.0
29/01:00am 13.0 12.9 12.1 94 0.5 ENE 4 6 2 3 1021.1 1019.6 0.0
29/12:30am 13.0 12.9 12.2 95 0.4 ENE 4 7 2 4 1021.3 1019.8 0.0
29/12:00am 12.3 12.9 12.0 98 0.2 CALM 0 0 0 0 1021.5 1020.0 0.0
 
Date/Time
EDT
Temp
°C
App
Temp
°C
Dew
Point
Rel
Hum
%
Delta-T
°C
Wind Press
QNH
hPa
Press
MSL
hPa
Rain
since 9 am
mm
Dir
 
Spd
km/h
Gust
km/h
Spd
kts
Gust
kts
28/11:30pm 12.1 12.7 11.8 98 0.2 CALM 0 0 0 0 1021.6 1020.2 0.0
28/11:00pm 11.9 11.0 11.4 97 0.3 E 7 11 4 6 1021.8 1020.4 0.0
28/10:30pm 12.4 10.9 11.8 96 0.3 E 11 15 6 8 1021.8 1020.4 0.0
28/10:00pm 12.7 10.4 11.6 93 0.6 E 15 20 8 11 1021.6 1020.2 0.0
28/09:30pm 13.0 11.1 11.7 92 0.7 E 13 22 7 12 1021.5 1020.0 0.0
28/09:00pm 13.3 11.3 11.5 89 1.0 ESE 13 19 7 10 1021.2 1019.7 0.0
28/08:30pm 13.9 12.1 10.9 82 1.6 ESE 11 15 6 8 1021.0 1019.5 0.0
28/08:00pm 14.8 12.5 10.4 75 2.4 E 13 20 7 11 1020.5 1019.0 0.0
28/07:30pm 16.0 12.5 10.3 69 3.1 E 19 26 10 14 1020.1 1018.6 0.0
28/07:00pm 17.6 13.9 10.2 62 4.0 E 20 28 11 15 1019.8 1018.3 0.0
28/06:30pm 19.4 15.3 10.1 55 5.1 E 22 32 12 17 1019.5 1018.0 0.0
28/06:00pm 20.9 17.3 10.4 51 5.9 E 20 28 11 15 1019.5 1018.0 0.0
28/05:30pm 21.9 18.2 9.4 45 6.9 ENE 19 26 10 14 1019.5 1018.0 0.0
28/05:00pm 23.1 19.5 9.8 43 7.4 ENE 19 26 10 14 1019.7 1018.2 0.0
28/04:30pm 22.7 19.0 8.0 39 8.0 ENE 17 26 9 14 1019.9 1018.4 0.0
28/04:00pm 22.7 18.7 8.4 40 7.8 NE 19 26 10 14 1020.2 1018.8 0.0
28/03:30pm 21.9 18.7 8.4 42 7.3 ENE 15 22 8 12 1020.6 1019.1 0.0
28/03:00pm 23.1 20.1 7.6 37 8.3 ENE 13 24 7 13 1020.7 1019.2 0.0
28/02:30pm 22.9 20.3 7.8 38 8.2 ENE 11 24 6 13 1021.0 1019.5 0.0
28/02:00pm 22.7 19.9 6.9 36 8.4 NNE 11 22 6 12 1021.6 1020.2 0.0
28/01:30pm 22.9 20.2 7.4 37 8.3 N 11 19 6 10 1022.2 1020.7 0.0
28/01:00pm 22.0 18.8 7.0 38 7.9 E 13 20 7 11 1022.6 1021.1 0.0
28/12:30pm 20.6 17.6 7.6 43 6.9 ENE 13 20 7 11 1023.0 1021.6 0.0
28/12:00pm 20.0 17.3 7.4 44 6.6 NNE 11 17 6 9 1023.3 1021.9 0.0
28/11:30am 19.2 17.0 7.9 48 6.0 ENE 9 19 5 10 1023.8 1022.3 0.0
28/11:00am 18.4 15.5 8.1 51 5.4 NNE 13 26 7 14 1024.0 1022.5 0.0
28/10:30am 18.2 15.7 8.2 52 5.3 N 11 19 6 10 1024.2 1022.7 0.0
28/10:00am 18.0 16.0 8.6 54 5.0 N 9 15 5 8 1024.4 1023.0 0.0
28/09:30am 16.7 14.2 8.4 58 4.4 NE 11 30 6 16 1024.4 1023.0 0.0
28/09:00am 16.0 12.8 8.5 61 3.9 NE 15 22 8 12 1024.4 1023.0 0.0
28/08:30am 14.9 11.8 8.8 67 3.2 E 15 20 8 11 1024.5 1023.1 0.0
28/08:00am 14.2 11.2 9.2 72 2.6 E 15 20 8 11 1024.5 1023.1 0.0
28/07:30am 13.3 11.1 9.4 77 2.1 E 11 15 6 8 1024.3 1022.8 0.0
28/07:00am 11.6 9.0 9.2 85 1.2 ESE 13 19 7 10 1023.8 1022.3 0.0
28/06:30am 10.2 8.4 9.6 96 0.3 E 9 11 5 6 1023.6 1022.2 0.0
28/06:00am 8.5 7.3 8.1 97 0.2 ESE 4 6 2 3 1023.5 1022.1 0.0
28/05:30am 9.1 8.0 8.6 97 0.3 ESE 4 6 2 3 1023.4 1022.0 0.0
28/05:00am 9.4 7.8 8.6 95 0.4 E 7 9 4 5 1023.1 1021.7 0.0
28/04:30am 10.3 7.4 9.8 97 0.3 ESE 15 19 8 10 1022.9 1021.4 0.0
28/04:00am 10.4 8.4 10.1 98 0.2 SE 11 15 6 8 1023.1 1021.7 0.0
28/03:30am 9.9 9.8 9.6 98 0.2 CALM 0 6 0 3 1023.3 1021.9 0.0
28/03:00am 10.4 9.7 10.1 98 0.2 SE 4 7 2 4 1023.5 1022.1 0.0
28/02:30am 10.9 9.8 10.6 98 0.2 SE 7 11 4 6 1024.0 1022.5 0.0
28/02:00am 10.5 9.3 10.2 98 0.2 ESE 7 11 4 6 1024.0 1022.5 0.0
28/01:30am 10.3 8.3 10.0 98 0.2 ESE 11 15 6 8 1024.3 1022.8 0.0
28/01:00am 9.9 8.1 9.6 98 0.2 ESE 9 11 5 6 1024.6 1023.2 0.0
28/12:30am 10.1 8.3 9.5 96 0.3 ESE 9 11 5 6 1024.6 1023.2 0.0
28/12:00am 11.3 9.5 10.7 96 0.3 ESE 11 15 6 8 1024.9 1023.5 0.0
 
Date/Time
EDT
Temp
°C
App
Temp
°C
Dew
Point
Rel
Hum
%
Delta-T
°C
Wind Press
QNH
hPa
Press
MSL
hPa
Rain
since 9 am
mm
Dir
 
Spd
km/h
Gust
km/h
Spd
kts
Gust
kts
27/11:30pm 10.9 9.8 10.6 98 0.2 ESE 7 9 4 5 1025.2 1023.8 0.0
27/11:00pm 11.3 9.5 10.7 96 0.3 SE 11 15 6 8 1025.3 1023.9 0.0
27/10:30pm 11.5 10.3 10.4 93 0.6 SE 7 9 4 5 1025.5 1024.0 0.0
27/10:00pm 12.2 10.8 10.9 92 0.7 SE 9 13 5 7 1025.7 1024.2 0.0
27/09:30pm 12.3 9.8 10.9 91 0.8 SE 15 20 8 11 1025.2 1023.8 0.0
27/09:00pm 12.3 10.2 11.2 93 0.6 SE 13 17 7 9 1025.1 1023.7 0.0
27/08:30pm 12.2 10.9 11.1 93 0.6 ESE 9 13 5 7 1024.8 1023.4 0.0
27/08:00pm 12.1 10.4 11.2 94 0.5 ESE 11 17 6 9 1024.6 1023.2 0.0
27/07:30pm 11.9 9.2 11.6 98 0.2 SE 17 20 9 11 1024.5 1023.1 0.0
27/07:00pm 12.3 10.3 11.4 94 0.5 SE 13 19 7 10 1024.3 1022.8 0.0
27/06:30pm 12.6 9.6 10.8 89 1.0 SE 17 20 9 11 1024.0 1022.5 0.0
27/06:00pm 13.4 10.9 10.9 85 1.4 ESE 15 24 8 13 1023.4 1022.0 0.0
27/05:30pm 13.5 9.9 10.7 83 1.5 ESE 20 30 11 16 1023.2 1021.8 0.0
27/05:00pm 14.5 10.2 10.9 79 2.0 ESE 24 30 13 16 1023.0 1021.6 0.0
27/04:30pm 16.6 12.8 11.3 71 3.0 E 22 33 12 18 1022.8 1021.3 0.0
27/04:00pm 17.7 13.9 11.3 66 3.6 E 22 33 12 18 1022.7 1021.2 0.0
27/03:30pm 20.4 17.4 12.1 59 4.8 E 19 28 10 15 1022.6 1021.1 0.0
27/03:00pm 19.0 15.8 11.3 61 4.3 E 19 24 10 13 1022.8 1021.3 0.0
27/02:30pm 18.5 16.0 11.1 62 4.1 NE 15 22 8 12 1022.9 1021.4 0.0
27/02:00pm 18.9 15.8 11.5 62 4.2 E 19 28 10 15 1023.0 1021.6 0.0
27/01:30pm 18.0 15.2 11.3 65 3.8 E 17 22 9 12 1023.2 1021.8 0.0
27/01:00pm 18.6 15.9 11.7 64 3.9 E 17 22 9 12 1023.3 1021.9 0.0
27/12:30pm 18.2 16.4 10.8 62 4.1 ESE 11 19 6 10 1023.5 1022.1 0.0
27/12:00pm 17.0 14.0 10.8 67 3.4 E 17 24 9 13 1023.9 1022.4 0.0
27/11:30am 16.2 13.3 10.9 71 2.9 ESE 17 26 9 14 1023.9 1022.4 0.0
27/11:00am 14.8 11.8 10.8 77 2.2 SE 17 24 9 13 1024.1 1022.6 0.0
27/10:30am 14.7 11.9 11.5 81 1.8 SE 17 22 9 12 1023.9 1022.4 0.0
27/10:00am 13.6 10.6 11.8 89 1.0 SSE 19 22 10 12 1023.6 1022.2 0.0
27/09:30am 13.3 11.3 12.7 96 0.3 ESE 15 20 8 11 1023.4 1022.0 0.0
27/09:00am 13.5 11.3 13.2 98 0.2 ESE 17 20 9 11 1023.3 1021.9 0.0
27/08:30am 13.2 12.0 12.9 98 0.2 SE 11 17 6 9 1023.4 1022.0 0.0
27/08:00am 12.9 11.6 12.6 98 0.2 SE 11 15 6 8 1023.2 1021.8 0.0
27/07:30am 13.0 11.4 12.7 98 0.2 ESE 13 19 7 10 1023.1 1021.7 0.0
27/07:00am 12.9 12.0 12.6 98 0.2 SE 9 17 5 9 1022.8 1021.3 0.0
27/06:30am 12.7 11.4 12.4 98 0.2 ESE 11 15 6 8 1022.4 1020.9 0.0
27/06:00am 12.5 11.1 12.2 98 0.2 SE 11 20 6 11 1022.3 1020.8 0.0
27/05:30am 12.6 11.6 12.3 98 0.2 ESE 9 15 5 8 1021.8 1020.4 0.0
27/05:00am 12.3 11.2 12.0 98 0.2 SE 9 13 5 7 1021.5 1020.0 0.0
27/04:30am 12.4 11.3 12.1 98 0.2 SE 9 13 5 7 1021.5 1020.0 0.0
27/04:00am 12.7 10.9 12.2 97 0.3 ESE 13 19 7 10 1021.2 1019.7 0.0
27/03:30am 12.8 11.2 11.7 93 0.6 ESE 11 17 6 9 1021.0 1019.5 0.0
27/03:00am 12.9 11.1 12.0 94 0.5 SE 13 22 7 12 1020.9 1019.4 0.0
27/02:30am 12.9 10.7 12.1 95 0.4 SE 15 24 8 13 1021.0 1019.5 0.0
27/02:00am 12.9 11.1 12.1 95 0.4 ESE 13 20 7 11 1021.2 1019.7 0.0
27/01:30am 12.9 10.7 12.0 94 0.5 ESE 15 22 8 12 1021.3 1019.8 0.0
27/01:00am 13.3 10.7 12.0 92 0.7 SE 17 26 9 14 1021.6 1020.2 0.0
27/12:30am 13.4 11.7 12.5 94 0.5 SE 13 24 7 13 1021.8 1020.4 0.0
27/12:00am 13.3 10.9 12.7 96 0.3 SE 17 30 9 16 1021.9 1020.5 0.0
 
Date/Time
EDT
Temp
°C
App
Temp
°C
Dew
Point
Rel
Hum
%
Delta-T
°C
Wind Press
QNH
hPa
Press
MSL
hPa
Rain
since 9 am
mm
Dir
 
Spd
km/h
Gust
km/h
Spd
kts
Gust
kts
26/11:30pm 13.8 9.6 12.4 91 0.8 SE 26 37 14 20 1021.8 1020.4 0.0
26/11:00pm 14.9 13.0 12.9 88 1.1 SE 15 22 8 12 1021.6 1020.2 0.0
26/10:30pm 14.9 14.1 12.9 88 1.1 SE 9 13 5 7 1021.7 1020.3 0.0
26/10:00pm 14.4 13.4 12.3 87 1.2 ESE 9 13 5 7 1021.3 1019.8 0.0
26/09:30pm 14.5 13.5 12.2 86 1.3 SE 9 17 5 9 1021.3 1019.8 0.0
26/09:00pm 15.1 13.3 12.2 83 1.6 ESE 13 19 7 10 1020.8 1019.3 0.0
26/08:30pm 15.1 13.2 11.7 80 1.9 ESE 13 19 7 10 1020.6 1019.1 0.0
26/08:00pm 15.7 13.4 11.9 78 2.1 ESE 15 24 8 13 1020.4 1018.9 0.0
26/07:30pm 16.5 12.8 11.6 73 2.7 SE 22 32 12 17 1019.8 1018.3 0.0
26/07:00pm 17.1 13.0 11.6 70 3.1 ESE 24 33 13 18 1019.3 1017.8 0.0
26/06:30pm 17.9 14.8 12.1 69 3.3 ESE 20 35 11 19 1018.5 1017.0 0.0
26/06:00pm 18.5 13.0 11.8 65 3.8 SE 32 43 17 23 1017.8 1016.3 0.0
26/05:30pm 19.5 14.1 12.3 63 4.1 ESE 32 43 17 23 1017.4 1015.9 0.0
26/05:00pm 20.2 14.5 12.9 63 4.3 ESE 35 46 19 25 1017.0 1015.4 0.0
26/04:30pm 21.0 16.1 12.7 59 4.8 ESE 30 43 16 23 1017.0 1015.4 0.0

Other Formats:

Comma delimited format used in spreadsheet applications
http://www.bom.gov.au/fwo/IDN60801/IDN60801.94943.axf

JavaScript Object Notation format (JSON) in row-major order
http://www.bom.gov.au/fwo/IDN60801/IDN60801.94943.json